sensor_id;sensor_type;location;lat;lon;timestamp;P1;durP1;ratioP1;P2;durP2;ratioP2
51612;SDS011;37694;51.748;14.326;2022-10-22T00:02:05;6.43;;;2.58;;
51612;SDS011;37694;51.748;14.326;2022-10-22T00:04:32;4.47;;;2.78;;
51612;SDS011;37694;51.748;14.326;2022-10-22T00:06:58;2.30;;;2.10;;
51612;SDS011;37694;51.748;14.326;2022-10-22T00:09:24;3.85;;;2.22;;
51612;SDS011;37694;51.748;14.326;2022-10-22T00:11:50;4.63;;;2.35;;
51612;SDS011;37694;51.748;14.326;2022-10-22T00:14:15;5.00;;;2.58;;
51612;SDS011;37694;51.748;14.326;2022-10-22T00:16:41;2.63;;;2.40;;
51612;SDS011;37694;51.748;14.326;2022-10-22T00:19:07;2.67;;;2.47;;
51612;SDS011;37694;51.748;14.326;2022-10-22T00:21:33;6.25;;;2.75;;
51612;SDS011;37694;51.748;14.326;2022-10-22T00:23:59;2.47;;;2.10;;
51612;SDS011;37694;51.748;14.326;2022-10-22T00:26:25;6.55;;;2.55;;
51612;SDS011;37694;51.748;14.326;2022-10-22T00:28:51;3.08;;;2.20;;
51612;SDS011;37694;51.748;14.326;2022-10-22T00:31:17;3.42;;;2.42;;
51612;SDS011;37694;51.748;14.326;2022-10-22T00:33:44;4.85;;;2.67;;
51612;SDS011;37694;51.748;14.326;2022-10-22T00:36:11;2.60;;;2.40;;
51612;SDS011;37694;51.748;14.326;2022-10-22T00:38:37;6.10;;;2.42;;
51612;SDS011;37694;51.748;14.326;2022-10-22T00:41:04;2.63;;;2.42;;
51612;SDS011;37694;51.748;14.326;2022-10-22T00:43:30;4.78;;;2.60;;
51612;SDS011;37694;51.748;14.326;2022-10-22T00:45:56;4.70;;;2.17;;
51612;SDS011;37694;51.748;14.326;2022-10-22T00:48:22;3.17;;;2.33;;
51612;SDS011;37694;51.748;14.326;2022-10-22T00:50:58;2.33;;;2.10;;
51612;SDS011;37694;51.748;14.326;2022-10-22T00:53:43;3.47;;;2.30;;
51612;SDS011;37694;51.748;14.326;2022-10-22T00:56:11;2.72;;;2.15;;
51612;SDS011;37694;51.748;14.326;2022-10-22T00:58:39;4.65;;;2.70;;
51612;SDS011;37694;51.748;14.326;2022-10-22T01:01:12;3.08;;;2.33;;
51612;SDS011;37694;51.748;14.326;2022-10-22T01:03:42;2.70;;;2.15;;
51612;SDS011;37694;51.748;14.326;2022-10-22T01:06:08;2.15;;;1.92;;
51612;SDS011;37694;51.748;14.326;2022-10-22T01:08:40;2.42;;;2.22;;
51612;SDS011;37694;51.748;14.326;2022-10-22T01:13:40;3.65;;;2.05;;
51612;SDS011;37694;51.748;14.326;2022-10-22T01:16:36;3.40;;;2.42;;
51612;SDS011;37694;51.748;14.326;2022-10-22T01:22:22;4.65;;;2.13;;
51612;SDS011;37694;51.748;14.326;2022-10-22T01:30:56;3.78;;;2.53;;
51612;SDS011;37694;51.748;14.326;2022-10-22T01:33:23;2.45;;;2.25;;
51612;SDS011;37694;51.748;14.326;2022-10-22T01:35:50;2.58;;;2.38;;
51612;SDS011;37694;51.748;14.326;2022-10-22T01:38:18;3.05;;;2.35;;
51612;SDS011;37694;51.748;14.326;2022-10-22T01:40:47;4.32;;;2.42;;
51612;SDS011;37694;51.748;14.326;2022-10-22T01:43:14;3.40;;;2.47;;
51612;SDS011;37694;51.748;14.326;2022-10-22T01:45:59;5.32;;;2.85;;
51612;SDS011;37694;51.748;14.326;2022-10-22T01:59:50;3.85;;;2.33;;
51612;SDS011;37694;51.748;14.326;2022-10-22T02:08:13;2.55;;;2.33;;
51612;SDS011;37694;51.748;14.326;2022-10-22T02:10:42;3.88;;;2.50;;
51612;SDS011;37694;51.748;14.326;2022-10-22T02:13:11;3.38;;;2.42;;
51612;SDS011;37694;51.748;14.326;2022-10-22T02:15:41;3.13;;;2.35;;
51612;SDS011;37694;51.748;14.326;2022-10-22T02:18:10;2.25;;;2.05;;
51612;SDS011;37694;51.748;14.326;2022-10-22T02:20:37;2.90;;;2.50;;
51612;SDS011;37694;51.748;14.326;2022-10-22T02:23:04;3.72;;;2.15;;
51612;SDS011;37694;51.748;14.326;2022-10-22T02:25:31;4.82;;;2.28;;
51612;SDS011;37694;51.748;14.326;2022-10-22T02:28:12;2.58;;;2.38;;
51612;SDS011;37694;51.748;14.326;2022-10-22T02:30:48;2.60;;;2.40;;
51612;SDS011;37694;51.748;14.326;2022-10-22T02:33:20;3.28;;;2.40;;
51612;SDS011;37694;51.748;14.326;2022-10-22T02:35:50;3.55;;;2.25;;
51612;SDS011;37694;51.748;14.326;2022-10-22T02:38:17;2.85;;;2.17;;
51612;SDS011;37694;51.748;14.326;2022-10-22T02:40:43;2.40;;;2.20;;
51612;SDS011;37694;51.748;14.326;2022-10-22T02:43:10;4.20;;;2.67;;
51612;SDS011;37694;51.748;14.326;2022-10-22T02:45:35;2.20;;;2.00;;
51612;SDS011;37694;51.748;14.326;2022-10-22T02:48:02;2.35;;;2.15;;
51612;SDS011;37694;51.748;14.326;2022-10-22T02:50:28;2.50;;;2.30;;
51612;SDS011;37694;51.748;14.326;2022-10-22T02:52:54;2.33;;;2.10;;
51612;SDS011;37694;51.748;14.326;2022-10-22T02:55:20;2.55;;;2.33;;
51612;SDS011;37694;51.748;14.326;2022-10-22T02:57:45;2.75;;;2.17;;
51612;SDS011;37694;51.748;14.326;2022-10-22T03:00:11;2.60;;;2.40;;
51612;SDS011;37694;51.748;14.326;2022-10-22T03:02:37;2.30;;;2.10;;
51612;SDS011;37694;51.748;14.326;2022-10-22T03:05:03;2.75;;;2.40;;
51612;SDS011;37694;51.748;14.326;2022-10-22T03:07:29;2.08;;;1.98;;
51612;SDS011;37694;51.748;14.326;2022-10-22T03:09:55;2.30;;;2.10;;
51612;SDS011;37694;51.748;14.326;2022-10-22T03:12:20;2.70;;;2.50;;
51612;SDS011;37694;51.748;14.326;2022-10-22T03:14:46;2.47;;;2.25;;
51612;SDS011;37694;51.748;14.326;2022-10-22T03:17:11;4.40;;;2.10;;
51612;SDS011;37694;51.748;14.326;2022-10-22T03:19:37;4.13;;;2.42;;
51612;SDS011;37694;51.748;14.326;2022-10-22T03:22:06;3.38;;;2.70;;
51612;SDS011;37694;51.748;14.326;2022-10-22T03:24:39;2.80;;;2.60;;
51612;SDS011;37694;51.748;14.326;2022-10-22T03:27:07;3.00;;;2.70;;
51612;SDS011;37694;51.748;14.326;2022-10-22T03:29:34;2.65;;;2.42;;
51612;SDS011;37694;51.748;14.326;2022-10-22T03:32:02;2.60;;;2.40;;
51612;SDS011;37694;51.748;14.326;2022-10-22T03:34:28;2.72;;;2.33;;
51612;SDS011;37694;51.748;14.326;2022-10-22T03:36:55;3.17;;;2.55;;
51612;SDS011;37694;51.748;14.326;2022-10-22T03:39:22;2.47;;;2.28;;
51612;SDS011;37694;51.748;14.326;2022-10-22T03:41:48;2.50;;;2.30;;
51612;SDS011;37694;51.748;14.326;2022-10-22T03:44:15;2.78;;;2.40;;
51612;SDS011;37694;51.748;14.326;2022-10-22T03:46:42;2.22;;;2.03;;
51612;SDS011;37694;51.748;14.326;2022-10-22T03:49:07;3.88;;;2.33;;
51612;SDS011;37694;51.748;14.326;2022-10-22T03:51:33;2.25;;;2.05;;
51612;SDS011;37694;51.748;14.326;2022-10-22T03:53:59;2.92;;;2.70;;
51612;SDS011;37694;51.748;14.326;2022-10-22T03:56:25;2.63;;;2.35;;
51612;SDS011;37694;51.748;14.326;2022-10-22T03:58:54;3.38;;;2.50;;
51612;SDS011;37694;51.748;14.326;2022-10-22T04:01:20;4.40;;;2.42;;
51612;SDS011;37694;51.748;14.326;2022-10-22T04:03:46;3.20;;;2.50;;
51612;SDS011;37694;51.748;14.326;2022-10-22T04:06:12;2.95;;;2.00;;
51612;SDS011;37694;51.748;14.326;2022-10-22T04:08:38;4.50;;;2.83;;
51612;SDS011;37694;51.748;14.326;2022-10-22T04:11:05;4.88;;;2.80;;
51612;SDS011;37694;51.748;14.326;2022-10-22T04:13:31;10.60;;;2.78;;
51612;SDS011;37694;51.748;14.326;2022-10-22T04:16:06;3.00;;;2.40;;
51612;SDS011;37694;51.748;14.326;2022-10-22T04:18:36;3.38;;;2.67;;
51612;SDS011;37694;51.748;14.326;2022-10-22T04:21:02;2.78;;;2.55;;
51612;SDS011;37694;51.748;14.326;2022-10-22T04:23:29;4.00;;;2.58;;
51612;SDS011;37694;51.748;14.326;2022-10-22T04:25:57;3.38;;;2.40;;
51612;SDS011;37694;51.748;14.326;2022-10-22T04:28:27;2.90;;;2.40;;
51612;SDS011;37694;51.748;14.326;2022-10-22T04:30:53;3.90;;;2.40;;
51612;SDS011;37694;51.748;14.326;2022-10-22T04:33:19;2.35;;;2.15;;
51612;SDS011;37694;51.748;14.326;2022-10-22T04:35:44;4.20;;;2.50;;
51612;SDS011;37694;51.748;14.326;2022-10-22T04:38:10;2.22;;;2.03;;
51612;SDS011;37694;51.748;14.326;2022-10-22T04:40:36;3.40;;;2.42;;
51612;SDS011;37694;51.748;14.326;2022-10-22T04:43:01;3.25;;;2.72;;
51612;SDS011;37694;51.748;14.326;2022-10-22T04:45:27;2.53;;;2.25;;
51612;SDS011;37694;51.748;14.326;2022-10-22T04:47:52;4.35;;;2.47;;
51612;SDS011;37694;51.748;14.326;2022-10-22T04:50:18;3.13;;;2.90;;
51612;SDS011;37694;51.748;14.326;2022-10-22T04:52:44;2.83;;;2.63;;
51612;SDS011;37694;51.748;14.326;2022-10-22T04:55:09;4.65;;;2.33;;
51612;SDS011;37694;51.748;14.326;2022-10-22T04:57:35;3.42;;;2.88;;
51612;SDS011;37694;51.748;14.326;2022-10-22T05:00:00;2.33;;;2.13;;
51612;SDS011;37694;51.748;14.326;2022-10-22T05:02:26;2.47;;;1.98;;
51612;SDS011;37694;51.748;14.326;2022-10-22T05:04:51;2.60;;;2.40;;
51612;SDS011;37694;51.748;14.326;2022-10-22T05:07:17;2.85;;;2.50;;
51612;SDS011;37694;51.748;14.326;2022-10-22T05:09:43;2.42;;;2.22;;
51612;SDS011;37694;51.748;14.326;2022-10-22T05:12:08;4.00;;;2.47;;
51612;SDS011;37694;51.748;14.326;2022-10-22T05:14:34;2.75;;;2.40;;
51612;SDS011;37694;51.748;14.326;2022-10-22T05:17:00;3.70;;;2.20;;
51612;SDS011;37694;51.748;14.326;2022-10-22T05:19:26;2.50;;;2.33;;
51612;SDS011;37694;51.748;14.326;2022-10-22T05:21:54;5.15;;;2.70;;
51612;SDS011;37694;51.748;14.326;2022-10-22T05:24:27;4.07;;;2.08;;
51612;SDS011;37694;51.748;14.326;2022-10-22T05:26:55;3.22;;;2.42;;
51612;SDS011;37694;51.748;14.326;2022-10-22T05:29:22;3.90;;;2.60;;
51612;SDS011;37694;51.748;14.326;2022-10-22T05:31:51;3.08;;;2.47;;
51612;SDS011;37694;51.748;14.326;2022-10-22T05:34:17;3.10;;;2.50;;
51612;SDS011;37694;51.748;14.326;2022-10-22T05:36:43;5.53;;;2.70;;
51612;SDS011;37694;51.748;14.326;2022-10-22T05:39:08;5.53;;;2.38;;
51612;SDS011;37694;51.748;14.326;2022-10-22T05:41:34;6.07;;;2.42;;
51612;SDS011;37694;51.748;14.326;2022-10-22T05:44:00;5.63;;;2.58;;
51612;SDS011;37694;51.748;14.326;2022-10-22T05:46:27;10.00;;;3.08;;
51612;SDS011;37694;51.748;14.326;2022-10-22T05:48:55;7.53;;;2.53;;
51612;SDS011;37694;51.748;14.326;2022-10-22T05:51:23;6.43;;;2.97;;
51612;SDS011;37694;51.748;14.326;2022-10-22T05:53:51;7.20;;;2.50;;
51612;SDS011;37694;51.748;14.326;2022-10-22T05:56:18;6.80;;;2.75;;
51612;SDS011;37694;51.748;14.326;2022-10-22T05:58:44;7.75;;;2.80;;
51612;SDS011;37694;51.748;14.326;2022-10-22T06:01:11;7.80;;;2.63;;
51612;SDS011;37694;51.748;14.326;2022-10-22T06:03:42;12.13;;;2.55;;
51612;SDS011;37694;51.748;14.326;2022-10-22T06:06:51;7.45;;;3.17;;
51612;SDS011;37694;51.748;14.326;2022-10-22T06:09:06;5.85;;;2.40;;
51612;SDS011;37694;51.748;14.326;2022-10-22T06:11:35;14.80;;;3.25;;
51612;SDS011;37694;51.748;14.326;2022-10-22T06:14:01;12.50;;;3.35;;
51612;SDS011;37694;51.748;14.326;2022-10-22T06:16:29;16.67;;;2.95;;
51612;SDS011;37694;51.748;14.326;2022-10-22T06:18:57;6.93;;;2.60;;
51612;SDS011;37694;51.748;14.326;2022-10-22T06:21:25;5.45;;;2.75;;
51612;SDS011;37694;51.748;14.326;2022-10-22T06:23:51;10.32;;;2.75;;
51612;SDS011;37694;51.748;14.326;2022-10-22T06:26:19;5.78;;;2.63;;
51612;SDS011;37694;51.748;14.326;2022-10-22T06:28:45;4.68;;;2.72;;
51612;SDS011;37694;51.748;14.326;2022-10-22T06:31:10;13.35;;;3.40;;
51612;SDS011;37694;51.748;14.326;2022-10-22T06:33:36;14.05;;;2.65;;
51612;SDS011;37694;51.748;14.326;2022-10-22T06:36:17;13.63;;;3.20;;
51612;SDS011;37694;51.748;14.326;2022-10-22T06:38:44;9.23;;;2.85;;
51612;SDS011;37694;51.748;14.326;2022-10-22T06:41:11;17.70;;;3.33;;
51612;SDS011;37694;51.748;14.326;2022-10-22T06:43:39;8.27;;;2.70;;
51612;SDS011;37694;51.748;14.326;2022-10-22T06:46:07;18.80;;;3.05;;
51612;SDS011;37694;51.748;14.326;2022-10-22T06:48:37;10.60;;;3.17;;
51612;SDS011;37694;51.748;14.326;2022-10-22T06:51:04;10.13;;;3.13;;
51612;SDS011;37694;51.748;14.326;2022-10-22T06:53:35;10.50;;;2.83;;
51612;SDS011;37694;51.748;14.326;2022-10-22T06:56:08;12.82;;;3.10;;
51612;SDS011;37694;51.748;14.326;2022-10-22T06:58:36;19.13;;;3.40;;
51612;SDS011;37694;51.748;14.326;2022-10-22T07:01:05;13.95;;;3.17;;
51612;SDS011;37694;51.748;14.326;2022-10-22T07:03:33;11.25;;;2.72;;
51612;SDS011;37694;51.748;14.326;2022-10-22T07:06:03;13.32;;;2.95;;
51612;SDS011;37694;51.748;14.326;2022-10-22T07:08:30;9.63;;;3.22;;
51612;SDS011;37694;51.748;14.326;2022-10-22T07:11:03;10.35;;;2.70;;
51612;SDS011;37694;51.748;14.326;2022-10-22T07:13:46;14.20;;;3.28;;
51612;SDS011;37694;51.748;14.326;2022-10-22T07:16:12;18.42;;;3.47;;
51612;SDS011;37694;51.748;14.326;2022-10-22T07:18:38;16.40;;;3.30;;
51612;SDS011;37694;51.748;14.326;2022-10-22T07:21:05;19.48;;;3.47;;
51612;SDS011;37694;51.748;14.326;2022-10-22T07:23:32;7.97;;;3.25;;
51612;SDS011;37694;51.748;14.326;2022-10-22T07:25:57;9.43;;;2.63;;
51612;SDS011;37694;51.748;14.326;2022-10-22T07:28:23;6.55;;;2.45;;
51612;SDS011;37694;51.748;14.326;2022-10-22T07:30:49;15.95;;;3.03;;
51612;SDS011;37694;51.748;14.326;2022-10-22T07:33:15;14.38;;;2.70;;
51612;SDS011;37694;51.748;14.326;2022-10-22T07:35:41;15.07;;;3.00;;
51612;SDS011;37694;51.748;14.326;2022-10-22T07:38:07;13.38;;;2.88;;
51612;SDS011;37694;51.748;14.326;2022-10-22T07:40:33;9.63;;;2.70;;
51612;SDS011;37694;51.748;14.326;2022-10-22T07:42:59;12.57;;;2.97;;
51612;SDS011;37694;51.748;14.326;2022-10-22T07:45:24;15.25;;;3.30;;
51612;SDS011;37694;51.748;14.326;2022-10-22T07:47:50;8.32;;;2.90;;
51612;SDS011;37694;51.748;14.326;2022-10-22T07:50:16;13.63;;;3.22;;
51612;SDS011;37694;51.748;14.326;2022-10-22T07:52:42;9.27;;;3.08;;
51612;SDS011;37694;51.748;14.326;2022-10-22T07:55:07;5.07;;;2.92;;
51612;SDS011;37694;51.748;14.326;2022-10-22T07:57:33;14.02;;;2.80;;
51612;SDS011;37694;51.748;14.326;2022-10-22T08:00:01;16.65;;;3.55;;
51612;SDS011;37694;51.748;14.326;2022-10-22T08:02:30;11.35;;;2.83;;
51612;SDS011;37694;51.748;14.326;2022-10-22T08:04:56;29.63;;;3.70;;
51612;SDS011;37694;51.748;14.326;2022-10-22T08:07:22;34.33;;;6.00;;
51612;SDS011;37694;51.748;14.326;2022-10-22T08:09:48;16.42;;;3.67;;
51612;SDS011;37694;51.748;14.326;2022-10-22T08:12:13;20.77;;;4.05;;
51612;SDS011;37694;51.748;14.326;2022-10-22T08:14:39;19.27;;;3.65;;
51612;SDS011;37694;51.748;14.326;2022-10-22T08:17:04;25.30;;;3.65;;
51612;SDS011;37694;51.748;14.326;2022-10-22T08:19:30;13.02;;;3.90;;
51612;SDS011;37694;51.748;14.326;2022-10-22T08:21:56;26.15;;;4.05;;
51612;SDS011;37694;51.748;14.326;2022-10-22T08:24:22;13.05;;;3.17;;
51612;SDS011;37694;51.748;14.326;2022-10-22T08:26:48;11.70;;;3.58;;
51612;SDS011;37694;51.748;14.326;2022-10-22T08:29:14;19.80;;;4.38;;
51612;SDS011;37694;51.748;14.326;2022-10-22T08:31:39;16.08;;;3.50;;
51612;SDS011;37694;51.748;14.326;2022-10-22T08:34:05;14.05;;;3.63;;
51612;SDS011;37694;51.748;14.326;2022-10-22T08:36:32;10.18;;;3.17;;
51612;SDS011;37694;51.748;14.326;2022-10-22T08:38:57;12.88;;;4.63;;
51612;SDS011;37694;51.748;14.326;2022-10-22T08:41:23;13.45;;;3.60;;
51612;SDS011;37694;51.748;14.326;2022-10-22T08:49:37;9.55;;;3.53;;
51612;SDS011;37694;51.748;14.326;2022-10-22T08:52:07;11.07;;;3.53;;
51612;SDS011;37694;51.748;14.326;2022-10-22T08:57:31;14.32;;;3.55;;
51612;SDS011;37694;51.748;14.326;2022-10-22T09:08:10;13.75;;;4.25;;
51612;SDS011;37694;51.748;14.326;2022-10-22T09:10:37;7.72;;;3.47;;
51612;SDS011;37694;51.748;14.326;2022-10-22T09:13:11;16.30;;;4.30;;
51612;SDS011;37694;51.748;14.326;2022-10-22T09:15:40;14.18;;;3.13;;
51612;SDS011;37694;51.748;14.326;2022-10-22T09:18:22;10.70;;;3.22;;
51612;SDS011;37694;51.748;14.326;2022-10-22T09:26:57;16.70;;;3.15;;
51612;SDS011;37694;51.748;14.326;2022-10-22T09:29:27;13.38;;;3.67;;
51612;SDS011;37694;51.748;14.326;2022-10-22T09:31:57;32.83;;;4.53;;
51612;SDS011;37694;51.748;14.326;2022-10-22T09:34:22;7.20;;;2.60;;
51612;SDS011;37694;51.748;14.326;2022-10-22T09:37:01;16.08;;;3.42;;
51612;SDS011;37694;51.748;14.326;2022-10-22T09:39:36;10.00;;;2.78;;
51612;SDS011;37694;51.748;14.326;2022-10-22T09:42:04;19.63;;;3.42;;
51612;SDS011;37694;51.748;14.326;2022-10-22T09:44:34;9.25;;;3.20;;
51612;SDS011;37694;51.748;14.326;2022-10-22T09:47:44;15.00;;;3.40;;
51612;SDS011;37694;51.748;14.326;2022-10-22T09:50:36;21.55;;;4.03;;
51612;SDS011;37694;51.748;14.326;2022-10-22T09:52:58;18.23;;;3.30;;
51612;SDS011;37694;51.748;14.326;2022-10-22T09:55:28;18.13;;;4.10;;
51612;SDS011;37694;51.748;14.326;2022-10-22T09:57:55;23.38;;;3.45;;
51612;SDS011;37694;51.748;14.326;2022-10-22T10:00:23;18.98;;;3.13;;
51612;SDS011;37694;51.748;14.326;2022-10-22T10:02:53;20.38;;;3.90;;
51612;SDS011;37694;51.748;14.326;2022-10-22T10:05:24;27.33;;;2.90;;
51612;SDS011;37694;51.748;14.326;2022-10-22T10:08:17;16.52;;;3.55;;
51612;SDS011;37694;51.748;14.326;2022-10-22T10:13:21;14.82;;;3.00;;
51612;SDS011;37694;51.748;14.326;2022-10-22T10:21:24;12.40;;;3.73;;
51612;SDS011;37694;51.748;14.326;2022-10-22T10:26:48;9.05;;;2.90;;
51612;SDS011;37694;51.748;14.326;2022-10-22T10:37:46;14.18;;;3.20;;
51612;SDS011;37694;51.748;14.326;2022-10-22T10:40:27;11.35;;;3.65;;
51612;SDS011;37694;51.748;14.326;2022-10-22T11:04:51;15.55;;;4.05;;
51612;SDS011;37694;51.748;14.326;2022-10-22T11:13:18;5.95;;;2.60;;
51612;SDS011;37694;51.748;14.326;2022-10-22T11:22:00;12.40;;;3.10;;
51612;SDS011;37694;51.748;14.326;2022-10-22T11:29:58;9.65;;;3.45;;
51612;SDS011;37694;51.748;14.326;2022-10-22T11:32:27;11.80;;;3.08;;
51612;SDS011;37694;51.748;14.326;2022-10-22T11:34:55;7.63;;;3.50;;
51612;SDS011;37694;51.748;14.326;2022-10-22T11:37:24;11.88;;;3.10;;
51612;SDS011;37694;51.748;14.326;2022-10-22T11:39:57;12.65;;;3.15;;
51612;SDS011;37694;51.748;14.326;2022-10-22T11:48:17;12.23;;;3.75;;
51612;SDS011;37694;51.748;14.326;2022-10-22T11:50:44;15.63;;;3.38;;
51612;SDS011;37694;51.748;14.326;2022-10-22T12:06:20;18.40;;;3.85;;
51612;SDS011;37694;51.748;14.326;2022-10-22T12:16:23;19.85;;;3.55;;
51612;SDS011;37694;51.748;14.326;2022-10-22T12:21:36;12.60;;;3.50;;
51612;SDS011;37694;51.748;14.326;2022-10-22T12:24:03;11.20;;;3.63;;
51612;SDS011;37694;51.748;14.326;2022-10-22T12:26:30;17.63;;;4.07;;
51612;SDS011;37694;51.748;14.326;2022-10-22T12:28:59;18.95;;;3.15;;
51612;SDS011;37694;51.748;14.326;2022-10-22T12:31:26;10.93;;;3.60;;
51612;SDS011;37694;51.748;14.326;2022-10-22T12:33:55;20.35;;;3.17;;
51612;SDS011;37694;51.748;14.326;2022-10-22T12:36:24;16.80;;;3.47;;
51612;SDS011;37694;51.748;14.326;2022-10-22T12:39:00;9.65;;;3.53;;
51612;SDS011;37694;51.748;14.326;2022-10-22T12:41:35;16.45;;;3.60;;
51612;SDS011;37694;51.748;14.326;2022-10-22T12:44:04;12.63;;;4.03;;
51612;SDS011;37694;51.748;14.326;2022-10-22T12:46:33;20.17;;;4.03;;
51612;SDS011;37694;51.748;14.326;2022-10-22T12:49:03;16.75;;;3.58;;
51612;SDS011;37694;51.748;14.326;2022-10-22T12:51:32;21.33;;;3.80;;
51612;SDS011;37694;51.748;14.326;2022-10-22T12:54:06;13.43;;;4.05;;
51612;SDS011;37694;51.748;14.326;2022-10-22T12:56:34;20.75;;;4.30;;
51612;SDS011;37694;51.748;14.326;2022-10-22T12:59:02;23.92;;;3.38;;
51612;SDS011;37694;51.748;14.326;2022-10-22T13:01:36;14.98;;;4.00;;
51612;SDS011;37694;51.748;14.326;2022-10-22T13:04:05;8.70;;;2.67;;
51612;SDS011;37694;51.748;14.326;2022-10-22T13:06:32;19.17;;;3.78;;
51612;SDS011;37694;51.748;14.326;2022-10-22T13:11:38;20.83;;;3.95;;
51612;SDS011;37694;51.748;14.326;2022-10-22T13:17:06;16.45;;;4.00;;
51612;SDS011;37694;51.748;14.326;2022-10-22T13:27:42;22.60;;;4.18;;
51612;SDS011;37694;51.748;14.326;2022-10-22T13:30:13;20.48;;;3.40;;
51612;SDS011;37694;51.748;14.326;2022-10-22T13:32:47;22.63;;;3.47;;
51612;SDS011;37694;51.748;14.326;2022-10-22T13:35:19;21.48;;;4.05;;
51612;SDS011;37694;51.748;14.326;2022-10-22T13:37:47;23.08;;;4.57;;
51612;SDS011;37694;51.748;14.326;2022-10-22T13:40:13;15.88;;;3.75;;
51612;SDS011;37694;51.748;14.326;2022-10-22T13:42:39;36.55;;;4.28;;
51612;SDS011;37694;51.748;14.326;2022-10-22T13:45:05;16.35;;;3.03;;
51612;SDS011;37694;51.748;14.326;2022-10-22T13:47:31;15.65;;;3.22;;
51612;SDS011;37694;51.748;14.326;2022-10-22T13:49:58;17.95;;;3.83;;
51612;SDS011;37694;51.748;14.326;2022-10-22T13:52:27;17.80;;;3.92;;
51612;SDS011;37694;51.748;14.326;2022-10-22T13:57:55;22.60;;;4.15;;
51612;SDS011;37694;51.748;14.326;2022-10-22T14:00:24;12.45;;;3.15;;
51612;SDS011;37694;51.748;14.326;2022-10-22T14:02:51;13.70;;;3.10;;
51612;SDS011;37694;51.748;14.326;2022-10-22T14:05:19;23.50;;;3.65;;
51612;SDS011;37694;51.748;14.326;2022-10-22T14:07:45;22.50;;;3.13;;
51612;SDS011;37694;51.748;14.326;2022-10-22T14:10:21;11.38;;;3.08;;
51612;SDS011;37694;51.748;14.326;2022-10-22T14:12:48;20.88;;;3.53;;
51612;SDS011;37694;51.748;14.326;2022-10-22T14:15:16;11.65;;;3.08;;
51612;SDS011;37694;51.748;14.326;2022-10-22T14:17:44;21.20;;;3.75;;
51612;SDS011;37694;51.748;14.326;2022-10-22T14:20:23;28.52;;;4.80;;
51612;SDS011;37694;51.748;14.326;2022-10-22T14:22:51;19.00;;;3.63;;
51612;SDS011;37694;51.748;14.326;2022-10-22T14:25:18;18.45;;;3.65;;
51612;SDS011;37694;51.748;14.326;2022-10-22T14:27:48;21.95;;;3.58;;
51612;SDS011;37694;51.748;14.326;2022-10-22T14:30:14;27.70;;;4.20;;
51612;SDS011;37694;51.748;14.326;2022-10-22T14:32:44;21.58;;;4.15;;
51612;SDS011;37694;51.748;14.326;2022-10-22T14:35:14;17.33;;;3.63;;
51612;SDS011;37694;51.748;14.326;2022-10-22T14:37:41;13.77;;;3.28;;
51612;SDS011;37694;51.748;14.326;2022-10-22T14:40:07;17.25;;;4.35;;
51612;SDS011;37694;51.748;14.326;2022-10-22T14:42:38;10.50;;;3.13;;
51612;SDS011;37694;51.748;14.326;2022-10-22T14:45:06;16.70;;;3.80;;
51612;SDS011;37694;51.748;14.326;2022-10-22T14:47:45;15.82;;;4.13;;
51612;SDS011;37694;51.748;14.326;2022-10-22T14:50:10;19.42;;;3.65;;
51612;SDS011;37694;51.748;14.326;2022-10-22T14:52:37;17.02;;;4.45;;
51612;SDS011;37694;51.748;14.326;2022-10-22T14:55:03;18.60;;;4.68;;
51612;SDS011;37694;51.748;14.326;2022-10-22T14:57:29;17.38;;;4.00;;
51612;SDS011;37694;51.748;14.326;2022-10-22T14:59:55;18.02;;;4.47;;
51612;SDS011;37694;51.748;14.326;2022-10-22T15:02:20;17.90;;;4.30;;
51612;SDS011;37694;51.748;14.326;2022-10-22T15:04:46;15.25;;;4.40;;
51612;SDS011;37694;51.748;14.326;2022-10-22T15:07:13;20.70;;;4.75;;
51612;SDS011;37694;51.748;14.326;2022-10-22T15:09:39;12.65;;;4.10;;
51612;SDS011;37694;51.748;14.326;2022-10-22T15:12:04;20.15;;;4.90;;
51612;SDS011;37694;51.748;14.326;2022-10-22T15:14:30;16.73;;;4.28;;
51612;SDS011;37694;51.748;14.326;2022-10-22T15:16:56;19.58;;;4.97;;
51612;SDS011;37694;51.748;14.326;2022-10-22T15:19:23;16.98;;;3.78;;
51612;SDS011;37694;51.748;14.326;2022-10-22T15:21:48;15.07;;;4.35;;
51612;SDS011;37694;51.748;14.326;2022-10-22T15:24:14;23.90;;;5.30;;
51612;SDS011;37694;51.748;14.326;2022-10-22T15:26:39;14.55;;;4.82;;
51612;SDS011;37694;51.748;14.326;2022-10-22T15:29:05;19.48;;;4.85;;
51612;SDS011;37694;51.748;14.326;2022-10-22T15:31:47;25.45;;;4.75;;
51612;SDS011;37694;51.748;14.326;2022-10-22T15:34:22;18.95;;;4.25;;
51612;SDS011;37694;51.748;14.326;2022-10-22T15:36:49;21.48;;;4.63;;
51612;SDS011;37694;51.748;14.326;2022-10-22T15:39:16;27.27;;;6.80;;
51612;SDS011;37694;51.748;14.326;2022-10-22T15:41:41;28.65;;;5.38;;
51612;SDS011;37694;51.748;14.326;2022-10-22T15:44:07;34.92;;;5.95;;
51612;SDS011;37694;51.748;14.326;2022-10-22T15:46:39;19.85;;;5.60;;
51612;SDS011;37694;51.748;14.326;2022-10-22T15:49:05;44.78;;;7.35;;
51612;SDS011;37694;51.748;14.326;2022-10-22T15:51:30;25.70;;;5.55;;
51612;SDS011;37694;51.748;14.326;2022-10-22T15:53:57;38.90;;;8.02;;
51612;SDS011;37694;51.748;14.326;2022-10-22T15:56:24;34.67;;;8.45;;
51612;SDS011;37694;51.748;14.326;2022-10-22T15:58:52;25.73;;;6.15;;
51612;SDS011;37694;51.748;14.326;2022-10-22T16:01:23;22.75;;;7.25;;
51612;SDS011;37694;51.748;14.326;2022-10-22T16:03:50;28.42;;;8.18;;
51612;SDS011;37694;51.748;14.326;2022-10-22T16:06:24;53.75;;;10.93;;
51612;SDS011;37694;51.748;14.326;2022-10-22T16:08:51;48.67;;;11.75;;
51612;SDS011;37694;51.748;14.326;2022-10-22T16:11:18;56.30;;;11.27;;
51612;SDS011;37694;51.748;14.326;2022-10-22T16:13:44;32.47;;;8.05;;
51612;SDS011;37694;51.748;14.326;2022-10-22T16:16:10;35.08;;;8.30;;
51612;SDS011;37694;51.748;14.326;2022-10-22T16:18:35;28.58;;;7.32;;
51612;SDS011;37694;51.748;14.326;2022-10-22T16:21:01;37.08;;;7.28;;
51612;SDS011;37694;51.748;14.326;2022-10-22T16:23:26;21.05;;;5.40;;
51612;SDS011;37694;51.748;14.326;2022-10-22T16:25:52;17.98;;;5.78;;
51612;SDS011;37694;51.748;14.326;2022-10-22T16:28:18;21.83;;;5.80;;
51612;SDS011;37694;51.748;14.326;2022-10-22T16:30:43;21.20;;;5.03;;
51612;SDS011;37694;51.748;14.326;2022-10-22T16:33:09;21.70;;;4.53;;
51612;SDS011;37694;51.748;14.326;2022-10-22T16:35:41;14.43;;;4.97;;
51612;SDS011;37694;51.748;14.326;2022-10-22T16:38:07;15.85;;;4.30;;
51612;SDS011;37694;51.748;14.326;2022-10-22T16:40:34;15.27;;;4.00;;
51612;SDS011;37694;51.748;14.326;2022-10-22T16:43:00;15.68;;;4.60;;
51612;SDS011;37694;51.748;14.326;2022-10-22T16:45:26;14.50;;;3.53;;
51612;SDS011;37694;51.748;14.326;2022-10-22T16:47:51;16.20;;;4.00;;
51612;SDS011;37694;51.748;14.326;2022-10-22T16:50:17;15.88;;;4.53;;
51612;SDS011;37694;51.748;14.326;2022-10-22T16:52:42;10.43;;;3.47;;
51612;SDS011;37694;51.748;14.326;2022-10-22T16:55:08;14.38;;;3.78;;
51612;SDS011;37694;51.748;14.326;2022-10-22T16:57:34;8.45;;;3.70;;
51612;SDS011;37694;51.748;14.326;2022-10-22T17:00:00;12.90;;;3.60;;
51612;SDS011;37694;51.748;14.326;2022-10-22T17:02:26;12.75;;;3.90;;
51612;SDS011;37694;51.748;14.326;2022-10-22T17:04:51;8.88;;;3.38;;
51612;SDS011;37694;51.748;14.326;2022-10-22T17:07:17;13.68;;;4.03;;
51612;SDS011;37694;51.748;14.326;2022-10-22T17:09:42;10.77;;;3.83;;
51612;SDS011;37694;51.748;14.326;2022-10-22T17:12:08;12.57;;;3.30;;